Time;durP1;ratioP1;P1;durP2;ratioP2;P2;SDS_P1;SDS_P2;PMS_P1;PMS_P2;Temp;Humidity;BMP_temperature;BMP_pressure;BME280_temperature;BME280_humidity;BME280_pressure;Samples;Min_cycle;Max_cycle;Signal;HPM_P1;HPM_P2
2023/09/10 00:00:52;;;;;;;1999.90;999.90;;;18.20;99.90;;;;;;5068352;28;20432;-72
2023/09/10 00:03:19;;;;;;;1999.90;999.90;;;18.10;99.90;;;;;;5067262;28;20905;-72
2023/09/10 00:05:46;;;;;;;1999.90;999.90;;;18.20;99.90;;;;;;5067825;28;20435;-72
2023/09/10 00:08:14;;;;;;;1999.90;999.90;;;18.20;99.90;;;;;;5068472;28;20432;-72
2023/09/10 00:10:41;;;;;;;1999.90;999.90;;;18.20;99.90;;;;;;5072424;28;20431;-70
2023/09/10 00:13:09;;;;;;;1999.90;999.90;;;18.70;99.90;;;;;;5072211;28;20426;-72
2023/09/10 00:15:36;;;;;;;1999.90;999.90;;;18.30;99.90;;;;;;5072736;28;20428;-72
2023/09/10 00:18:02;;;;;;;1999.90;999.90;;;18.30;99.90;;;;;;5071909;28;20434;-72
2023/09/10 00:20:29;;;;;;;1999.90;999.90;;;18.30;99.90;;;;;;5069242;28;20485;-73
2023/09/10 00:22:56;;;;;;;1999.90;999.90;;;18.30;99.90;;;;;;5071542;28;21428;-72
2023/09/10 00:25:25;;;;;;;1999.90;999.90;;;18.40;99.90;;;;;;5072331;28;20435;-72
2023/09/10 00:27:51;;;;;;;1999.90;999.90;;;18.30;99.90;;;;;;5072578;28;20442;-74
2023/09/10 00:30:18;;;;;;;1999.90;999.90;;;18.20;99.90;;;;;;5071280;28;20431;-71
2023/09/10 00:32:45;;;;;;;1999.90;999.90;;;18.20;99.90;;;;;;5106537;22;20439;-78
2023/09/10 00:35:12;;;;;;;1999.90;999.90;;;18.20;99.90;;;;;;5108270;28;20424;-77
2023/09/10 00:37:38;;;;;;;1999.90;999.90;;;18.30;99.90;;;;;;5109167;28;20431;-75
2023/09/10 00:40:06;;;;;;;1999.90;999.90;;;18.20;99.90;;;;;;5110882;28;20939;-80
2023/09/10 00:42:34;;;;;;;1999.90;999.90;;;18.10;99.90;;;;;;5107742;28;20921;-77
2023/09/10 00:45:01;;;;;;;1999.90;999.90;;;18.10;99.90;;;;;;5097360;28;20500;-75
2023/09/10 00:47:28;;;;;;;1999.90;999.90;;;18.20;99.90;;;;;;5087023;28;20433;-76
2023/09/10 00:49:55;;;;;;;1999.90;999.90;;;18.30;99.90;;;;;;5091811;28;20475;-75
2023/09/10 00:52:22;;;;;;;1999.90;999.90;;;18.40;99.90;;;;;;5092475;28;20437;-78
2023/09/10 00:54:50;;;;;;;1999.90;999.90;;;18.40;99.90;;;;;;5092324;28;20487;-74
2023/09/10 00:57:17;;;;;;;1999.90;999.90;;;18.40;99.90;;;;;;5092135;28;20429;-75
2023/09/10 00:59:46;;;;;;;1999.90;999.90;;;18.50;99.90;;;;;;5090770;28;20417;-71
2023/09/10 01:02:14;;;;;;;1999.90;999.90;;;18.40;99.90;;;;;;5092181;28;20429;-76
2023/09/10 01:04:41;;;;;;;1999.90;999.90;;;18.30;99.90;;;;;;5091088;28;20834;-75
2023/09/10 01:07:09;;;;;;;1999.90;999.90;;;18.30;99.90;;;;;;5092168;28;20429;-73
2023/09/10 01:09:36;;;;;;;1999.90;999.90;;;18.30;99.90;;;;;;5094562;28;20421;-75
2023/09/10 01:12:25;;;;;;;1999.90;999.90;;;18.30;99.90;;;;;;5100976;28;20429;-75
2023/09/10 01:15:03;;;;;;;1999.90;999.90;;;18.40;99.90;;;;;;5093011;28;20429;-75
2023/09/10 01:17:35;;;;;;;1999.90;999.90;;;18.50;99.90;;;;;;5089339;28;20437;-76
2023/09/10 01:20:24;;;;;;;1999.90;999.90;;;18.40;99.90;;;;;;5089555;28;20437;-75
2023/09/10 01:23:02;;;;;;;1999.90;999.90;;;18.20;99.90;;;;;;5099974;28;20436;-72
2023/09/10 01:25:31;;;;;;;1999.90;999.90;;;18.30;99.90;;;;;;5090552;28;20520;-75
2023/09/10 01:27:58;;;;;;;1999.90;999.90;;;18.10;99.90;;;;;;5091408;28;20434;-75
2023/09/10 01:30:25;;;;;;;1999.90;999.90;;;18.00;99.90;;;;;;5092907;28;20769;-74
2023/09/10 01:32:55;;;;;;;1999.90;999.90;;;17.90;99.90;;;;;;5090273;28;20431;-75
2023/09/10 01:35:26;;;;;;;1999.90;999.90;;;18.00;99.90;;;;;;5098632;28;20814;-75
2023/09/10 01:37:59;;;;;;;1999.90;999.90;;;18.00;99.90;;;;;;5098268;28;20518;-76
2023/09/10 01:40:33;;;;;;;1999.90;999.90;;;18.10;99.90;;;;;;5096267;28;20908;-76
2023/09/10 01:43:02;;;;;;;1999.90;999.90;;;18.10;99.90;;;;;;5090811;28;20486;-76
2023/09/10 01:45:30;;;;;;;1999.90;999.90;;;18.10;99.90;;;;;;5090731;28;20458;-76
2023/09/10 01:47:57;;;;;;;1999.90;999.90;;;18.20;99.90;;;;;;5090288;28;20430;-76
2023/09/10 01:50:24;;;;;;;1999.90;999.90;;;18.30;99.90;;;;;;5096975;28;20503;-73
2023/09/10 01:52:50;;;;;;;1999.90;999.90;;;18.20;99.90;;;;;;5095022;28;20966;-76
2023/09/10 01:55:17;;;;;;;1999.90;999.90;;;18.00;99.90;;;;;;5087531;28;20438;-77
2023/09/10 01:57:45;;;;;;;1999.90;999.90;;;17.80;99.90;;;;;;5091052;28;20430;-76
2023/09/10 02:00:13;;;;;;;1999.90;999.90;;;17.70;99.90;;;;;;5091813;28;20434;-75
2023/09/10 02:02:40;;;;;;;1999.90;999.90;;;17.50;99.90;;;;;;5090683;28;20806;-76
2023/09/10 02:05:08;;;;;;;1999.90;999.90;;;17.50;99.90;;;;;;5105318;28;20855;-75
2023/09/10 02:07:34;;;;;;;1999.90;999.90;;;17.70;99.90;;;;;;5093315;28;20802;-76
2023/09/10 02:10:02;;;;;;;1999.90;999.90;;;17.60;99.90;;;;;;5098246;28;20433;-76
2023/09/10 02:12:28;;;;;;;1999.90;999.90;;;17.70;99.90;;;;;;5093836;28;20432;-76
2023/09/10 02:14:59;;;;;;;1999.90;999.90;;;17.70;99.90;;;;;;5094971;28;20809;-76
2023/09/10 02:17:26;;;;;;;1999.90;999.90;;;17.80;99.90;;;;;;5104642;28;20459;-71
2023/09/10 02:19:53;;;;;;;1999.90;999.90;;;17.60;99.90;;;;;;5100415;28;20429;-77
2023/09/10 02:22:19;;;;;;;1999.90;999.90;;;17.50;99.90;;;;;;5096834;28;20428;-76
2023/09/10 02:24:50;;;;;;;1999.90;999.90;;;17.50;99.90;;;;;;5089577;28;20437;-74
2023/09/10 02:27:17;;;;;;;1999.90;999.90;;;17.50;99.90;;;;;;5098021;28;20430;-75
2023/09/10 02:29:43;;;;;;;1999.90;999.90;;;17.50;99.90;;;;;;5095639;28;20433;-75
2023/09/10 02:32:12;;;;;;;1999.90;999.90;;;17.50;99.90;;;;;;5095958;28;20430;-75
2023/09/10 02:34:38;;;;;;;1999.90;999.90;;;17.50;99.90;;;;;;5086943;28;20437;-74
2023/09/10 02:37:05;;;;;;;1999.90;999.90;;;17.50;99.90;;;;;;5096255;28;20924;-75
2023/09/10 02:39:32;;;;;;;1999.90;999.90;;;17.40;99.90;;;;;;5102779;28;20929;-77
2023/09/10 02:41:58;;;;;;;1999.90;999.90;;;17.50;99.90;;;;;;5088030;28;20519;-76
2023/09/10 02:44:25;;;;;;;1999.90;999.90;;;17.50;99.90;;;;;;5097198;28;20795;-75
2023/09/10 02:46:52;;;;;;;1999.90;999.90;;;17.60;99.90;;;;;;5092347;28;20441;-76
2023/09/10 02:49:20;;;;;;;1999.90;999.90;;;17.60;99.90;;;;;;5105156;28;20428;-75
2023/09/10 02:51:48;;;;;;;1999.90;999.90;;;17.60;99.90;;;;;;5096301;28;20434;-75
2023/09/10 02:54:16;;;;;;;1999.90;999.90;;;17.70;99.90;;;;;;5100762;28;20934;-75
2023/09/10 02:56:43;;;;;;;1999.90;999.90;;;17.60;99.90;;;;;;5091148;28;20449;-76
2023/09/10 02:59:19;;;;;;;1999.90;999.90;;;17.30;99.90;;;;;;5097759;28;20432;-75
2023/09/10 03:01:46;;;;;;;1999.90;999.90;;;17.30;99.90;;;;;;5104920;28;20434;-75
2023/09/10 03:04:14;;;;;;;1999.90;999.90;;;17.50;99.90;;;;;;5097182;28;20433;-77
2023/09/10 03:06:44;;;;;;;1999.90;999.90;;;17.60;99.90;;;;;;5095228;28;20425;-75
2023/09/10 03:09:11;;;;;;;1999.90;999.90;;;17.60;99.90;;;;;;5091373;28;20437;-73
2023/09/10 03:11:38;;;;;;;1999.90;999.90;;;17.50;99.90;;;;;;5097969;28;20971;-74
2023/09/10 03:14:05;;;;;;;1999.90;999.90;;;17.40;99.90;;;;;;5105684;28;20428;-75
2023/09/10 03:16:32;;;;;;;1999.90;999.90;;;17.50;99.90;;;;;;5094934;28;20426;-77
2023/09/10 03:18:59;;;;;;;1999.90;999.90;;;17.50;99.90;;;;;;5092633;28;20436;-76
2023/09/10 03:21:28;;;;;;;1999.90;999.90;;;17.40;99.90;;;;;;5089534;28;20533;-73
2023/09/10 03:23:57;;;;;;;1999.90;999.90;;;17.50;99.90;;;;;;5093924;28;20440;-76
2023/09/10 03:26:24;;;;;;;1999.90;999.90;;;17.40;99.90;;;;;;5098904;28;20428;-71
2023/09/10 03:28:51;;;;;;;1999.90;999.90;;;17.40;99.90;;;;;;5089993;28;20439;-73
2023/09/10 03:31:17;;;;;;;1999.90;999.90;;;17.40;99.90;;;;;;5091962;28;20429;-73
2023/09/10 03:33:44;;;;;;;1999.90;999.90;;;17.40;99.90;;;;;;5085762;28;20442;-74
2023/09/10 03:36:11;;;;;;;1999.90;999.90;;;17.30;99.90;;;;;;5104992;28;20431;-72
2023/09/10 03:38:38;;;;;;;1999.90;999.90;;;17.40;99.90;;;;;;5094590;28;20484;-74
2023/09/10 03:41:06;;;;;;;1999.90;999.90;;;17.30;99.90;;;;;;5090595;28;20903;-76
2023/09/10 03:43:33;;;;;;;1999.90;999.90;;;17.20;99.90;;;;;;5090032;28;21509;-72
2023/09/10 03:45:59;;;;;;;1999.90;999.90;;;17.20;99.90;;;;;;5106745;28;20440;-76
2023/09/10 03:48:26;;;;;;;1999.90;999.90;;;17.20;99.90;;;;;;5101986;28;20423;-75
2023/09/10 03:50:53;;;;;;;1999.90;999.90;;;17.20;99.90;;;;;;5095339;28;20433;-71
2023/09/10 03:53:19;;;;;;;1999.90;999.90;;;17.10;99.90;;;;;;5093121;28;20426;-77
2023/09/10 03:55:46;;;;;;;1999.90;999.90;;;17.10;99.90;;;;;;5080016;28;20433;-76
2023/09/10 03:58:14;;;;;;;1999.90;999.90;;;17.10;99.90;;;;;;5092910;28;20428;-75
2023/09/10 04:00:41;;;;;;;1999.90;999.90;;;17.00;99.90;;;;;;5093742;28;20819;-73
2023/09/10 04:03:08;;;;;;;1999.90;999.90;;;17.10;99.90;;;;;;5089918;28;20430;-76
2023/09/10 04:05:35;;;;;;;1999.90;999.90;;;17.10;99.90;;;;;;5088228;28;20433;-72
2023/09/10 04:08:01;;;;;;;1999.90;999.90;;;17.10;99.90;;;;;;5101274;28;20432;-75
2023/09/10 04:10:28;;;;;;;1999.90;999.90;;;17.20;99.90;;;;;;5103647;28;20431;-75
2023/09/10 04:12:55;;;;;;;1999.90;999.90;;;17.20;99.90;;;;;;5097283;28;20452;-77
2023/09/10 04:15:23;;;;;;;1999.90;999.90;;;17.20;99.90;;;;;;5096622;28;20443;-75
2023/09/10 04:17:50;;;;;;;1999.90;999.90;;;17.20;99.90;;;;;;5089334;28;20430;-75
2023/09/10 04:20:19;;;;;;;1999.90;999.90;;;17.10;99.90;;;;;;5091583;28;20425;-73
2023/09/10 04:22:47;;;;;;;1999.90;999.90;;;17.00;99.90;;;;;;5096847;28;20433;-75
2023/09/10 04:25:13;;;;;;;1999.90;999.90;;;17.00;99.90;;;;;;5085991;28;21292;-75
2023/09/10 04:27:40;;;;;;;1999.90;999.90;;;16.90;99.90;;;;;;5093234;28;20432;-75
2023/09/10 04:30:08;;;;;;;1999.90;999.90;;;16.90;99.90;;;;;;5095017;28;20428;-76
2023/09/10 04:32:36;;;;;;;1999.90;999.90;;;16.80;99.90;;;;;;5094831;28;20465;-79
2023/09/10 04:35:04;;;;;;;1999.90;999.90;;;16.80;99.90;;;;;;5094477;28;20842;-75
2023/09/10 04:37:31;;;;;;;1999.90;999.90;;;16.70;99.90;;;;;;5094138;28;20481;-75
2023/09/10 04:39:58;;;;;;;1999.90;999.90;;;16.70;99.90;;;;;;5090722;28;20426;-75
2023/09/10 04:42:25;;;;;;;1999.90;999.90;;;16.70;99.90;;;;;;5095863;28;20427;-76
2023/09/10 04:44:51;;;;;;;1999.90;999.90;;;16.70;99.90;;;;;;5098853;28;20425;-76
2023/09/10 04:47:18;;;;;;;1999.90;999.90;;;16.80;99.90;;;;;;5098448;28;20433;-75
2023/09/10 04:49:46;;;;;;;1999.90;999.90;;;16.70;99.90;;;;;;5093182;28;20805;-76
2023/09/10 04:52:15;;;;;;;1999.90;999.90;;;16.70;99.90;;;;;;5093505;28;20516;-77
2023/09/10 04:54:42;;;;;;;1999.90;999.90;;;16.50;99.90;;;;;;5103713;28;20489;-75
2023/09/10 04:57:08;;;;;;;1999.90;999.90;;;16.40;99.90;;;;;;5090654;28;20919;-74
2023/09/10 04:59:35;;;;;;;1999.90;999.90;;;16.40;99.90;;;;;;5092295;28;20441;-78
2023/09/10 05:02:02;;;;;;;1999.90;999.90;;;16.50;99.90;;;;;;5092369;28;20807;-74
2023/09/10 05:04:29;;;;;;;1999.90;999.90;;;16.60;99.90;;;;;;5105684;28;20434;-77
2023/09/10 05:06:58;;;;;;;1999.90;999.90;;;16.70;99.90;;;;;;5106029;28;20432;-75
2023/09/10 05:09:24;;;;;;;1999.90;999.90;;;16.70;99.90;;;;;;5104167;28;20798;-75
2023/09/10 05:11:51;;;;;;;1999.90;999.90;;;16.60;99.90;;;;;;5097209;28;20433;-75
2023/09/10 05:14:18;;;;;;;1999.90;999.90;;;16.70;99.90;;;;;;5091778;28;20421;-77
2023/09/10 05:16:45;;;;;;;1999.90;999.90;;;16.80;99.90;;;;;;5091080;28;20430;-75
2023/09/10 05:19:11;;;;;;;1999.90;999.90;;;16.60;99.90;;;;;;5105605;28;20433;-74
2023/09/10 05:21:38;;;;;;;1999.90;999.90;;;16.70;99.90;;;;;;5100889;28;20431;-74
2023/09/10 05:24:07;;;;;;;1999.90;999.90;;;16.80;99.90;;;;;;5095224;28;20422;-75
2023/09/10 05:26:35;;;;;;;1999.90;999.90;;;16.90;99.90;;;;;;5092873;28;20449;-75
2023/09/10 05:29:01;;;;;;;1999.90;999.90;;;17.00;99.90;;;;;;5091242;28;20454;-75
2023/09/10 05:31:28;;;;;;;1999.90;999.90;;;16.90;99.90;;;;;;5104171;28;20428;-73
2023/09/10 05:33:55;;;;;;;1999.90;999.90;;;16.80;99.90;;;;;;5091454;28;20438;-76
2023/09/10 05:36:22;;;;;;;1999.90;999.90;;;16.90;99.90;;;;;;5095980;28;20429;-76
2023/09/10 05:38:48;;;;;;;1999.90;999.90;;;17.10;99.90;;;;;;5092976;28;20942;-76
2023/09/10 05:41:16;;;;;;;1999.90;999.90;;;17.20;99.90;;;;;;5105000;28;20427;-75
2023/09/10 05:43:43;;;;;;;1999.90;999.90;;;17.40;99.90;;;;;;5097859;28;20445;-75
2023/09/10 05:46:10;;;;;;;1999.90;999.90;;;17.60;99.90;;;;;;5097427;28;20954;-76
2023/09/10 05:48:37;;;;;;;1999.90;999.90;;;17.80;99.90;;;;;;5095221;28;20502;-76
2023/09/10 05:51:04;;;;;;;1999.90;999.90;;;18.00;99.90;;;;;;5091075;28;20509;-78
2023/09/10 05:53:30;;;;;;;1999.90;999.90;;;18.10;99.90;;;;;;5095520;28;20428;-76
2023/09/10 05:55:57;;;;;;;1999.90;999.90;;;18.10;99.90;;;;;;5097082;28;20452;-76
2023/09/10 05:58:25;;;;;;;1999.90;999.90;;;18.20;99.90;;;;;;5096908;28;20410;-76
2023/09/10 06:00:52;;;;;;;1999.90;999.90;;;18.30;99.90;;;;;;5093325;28;20436;-75
2023/09/10 06:03:19;;;;;;;1999.90;999.90;;;18.70;99.90;;;;;;5093419;28;20426;-76
2023/09/10 06:05:46;;;;;;;1999.90;999.90;;;18.50;99.90;;;;;;5088995;28;20434;-73
2023/09/10 06:08:13;;;;;;;1999.90;999.90;;;18.70;99.90;;;;;;5100399;28;20428;-76
2023/09/10 06:10:40;;;;;;;1999.90;999.90;;;18.80;99.90;;;;;;5099758;28;20426;-75
2023/09/10 06:13:06;;;;;;;1999.90;999.90;;;19.00;99.90;;;;;;5094747;28;20425;-75
2023/09/10 06:15:34;;;;;;;1999.90;999.90;;;19.10;99.90;;;;;;5095023;28;20444;-76
2023/09/10 06:18:01;;;;;;;1999.90;999.90;;;19.30;99.90;;;;;;5085123;28;20440;-77
2023/09/10 06:20:28;;;;;;;1999.90;999.90;;;19.50;99.90;;;;;;5097227;28;20429;-74
2023/09/10 06:22:56;;;;;;;1999.90;999.90;;;19.70;99.90;;;;;;5081367;28;20946;-75
2023/09/10 06:25:23;;;;;;;1999.90;999.90;;;19.70;99.90;;;;;;5088836;28;20919;-76
2023/09/10 06:27:50;;;;;;;1999.90;999.90;;;19.80;99.90;;;;;;5095214;28;20530;-75
2023/09/10 06:30:17;;;;;;;1999.90;999.90;;;19.90;99.90;;;;;;5092670;28;20424;-76
2023/09/10 06:32:45;;;;;;;1999.90;999.90;;;20.20;99.90;;;;;;5093060;28;20430;-72
2023/09/10 06:35:12;;;;;;;1999.90;999.90;;;20.30;99.90;;;;;;5094142;28;20428;-73
2023/09/10 06:37:40;;;;;;;1999.90;999.90;;;20.50;99.90;;;;;;5136777;22;20420;-75
2023/09/10 06:40:08;;;;;;;1999.90;999.90;;;20.70;99.90;;;;;;5121804;27;20438;-77
2023/09/10 06:42:35;;;;;;;1999.90;999.90;;;21.00;99.90;;;;;;5123990;27;20422;-79
2023/09/10 06:45:01;;;;;;;1999.90;999.90;;;21.40;99.90;;;;;;5128941;27;20422;-75
2023/09/10 06:47:28;;;;;;;1999.90;999.90;;;21.00;99.90;;;;;;5125885;27;20479;-74
2023/09/10 06:49:56;;;;;;;1999.90;999.90;;;21.00;99.90;;;;;;5108909;28;20451;-77
2023/09/10 06:52:23;;;;;;;1999.90;999.90;;;21.20;99.90;;;;;;5108463;28;20434;-73
2023/09/10 06:54:51;;;;;;;1999.90;999.90;;;21.30;99.90;;;;;;5110928;28;20447;-75
2023/09/10 06:57:18;;;;;;;1999.90;999.90;;;21.50;99.90;;;;;;5109944;28;20431;-74
2023/09/10 06:59:45;;;;;;;1999.90;999.90;;;21.90;99.90;;;;;;5102456;28;20456;-74
2023/09/10 07:02:11;;;;;;;1999.90;999.90;;;21.70;99.90;;;;;;5108822;28;20428;-71
2023/09/10 07:04:47;;;;;;;1999.90;999.90;;;21.70;99.90;;;;;;5109233;28;20422;-72
2023/09/10 07:07:15;;;;;;;1999.90;999.90;;;21.80;99.90;;;;;;5106406;28;20439;-72
2023/09/10 07:09:42;;;;;;;1999.90;999.90;;;21.90;99.90;;;;;;5110119;28;20432;-75
2023/09/10 07:12:09;;;;;;;1999.90;999.90;;;21.90;99.90;;;;;;5109382;28;20417;-73
2023/09/10 07:14:36;;;;;;;1999.90;999.90;;;22.00;99.90;;;;;;5109663;28;20428;-72
2023/09/10 07:17:03;;;;;;;1999.90;999.90;;;22.80;99.90;;;;;;5108012;28;20424;-77
2023/09/10 07:19:30;;;;;;;1999.90;999.90;;;23.30;99.90;;;;;;5108776;28;20919;-74
2023/09/10 07:21:58;;;;;;;1999.90;999.90;;;23.80;99.90;;;;;;5109849;28;20420;-69
2023/09/10 07:24:26;;;;;;;1999.90;999.90;;;24.20;99.90;;;;;;5106864;28;20435;-74
2023/09/10 07:26:53;;;;;;;1999.90;999.90;;;24.80;99.90;;;;;;5106831;28;20797;-73
2023/09/10 07:29:19;;;;;;;1999.90;999.90;;;24.90;99.90;;;;;;5105547;28;20913;-74
2023/09/10 07:31:46;;;;;;;1999.90;999.90;;;25.10;99.90;;;;;;5106526;28;20424;-73
2023/09/10 07:34:13;;;;;;;1999.90;999.90;;;25.30;99.90;;;;;;5109335;28;20424;-72
2023/09/10 07:36:40;;;;;;;1999.90;999.90;;;25.50;99.90;;;;;;5109547;28;20536;-73
2023/09/10 07:39:08;;;;;;;1999.90;999.90;;;25.60;99.90;;;;;;5100780;28;20420;-73
2023/09/10 07:41:36;;;;;;;1999.90;999.90;;;25.70;99.90;;;;;;5106920;28;20438;-73
2023/09/10 07:44:02;;;;;;;1999.90;999.90;;;25.80;99.90;;;;;;5109977;28;20468;-72
2023/09/10 07:46:30;;;;;;;1999.90;999.90;;;26.10;99.90;;;;;;5105691;28;20476;-73
2023/09/10 07:48:57;;;;;;;1999.90;999.90;;;26.10;99.90;;;;;;5101962;28;20428;-74
2023/09/10 07:51:23;;;;;;;1999.90;999.90;;;26.30;99.90;;;;;;5108934;28;20428;-73
2023/09/10 07:53:50;;;;;;;1999.90;999.90;;;26.40;99.90;;;;;;5109316;28;20427;-74
2023/09/10 07:56:17;;;;;;;1999.90;999.90;;;25.90;99.90;;;;;;5105708;28;20540;-75
2023/09/10 07:58:45;;;;;;;1999.90;999.90;;;25.90;99.90;;;;;;5104183;28;20448;-74
2023/09/10 08:01:12;;;;;;;1999.90;999.90;;;25.90;99.90;;;;;;5099824;28;20771;-74
2023/09/10 08:03:41;;;;;;;1999.90;999.90;;;26.20;99.90;;;;;;5108012;28;20428;-74
2023/09/10 08:06:08;;;;;;;1999.90;999.90;;;26.20;99.90;;;;;;5108778;28;20429;-74
2023/09/10 08:08:34;;;;;;;1999.90;999.90;;;26.50;99.90;;;;;;5109911;28;20431;-74
2023/09/10 08:11:01;;;;;;;1999.90;999.90;;;26.40;99.90;;;;;;5105893;28;20423;-74
2023/09/10 08:13:28;;;;;;;1999.90;999.90;;;26.40;99.90;;;;;;5106009;28;20882;-72
2023/09/10 08:15:56;;;;;;;1999.90;999.90;;;26.40;99.90;;;;;;5105497;28;20435;-72
2023/09/10 08:18:23;;;;;;;1999.90;999.90;;;26.40;99.90;;;;;;5108420;28;20428;-73
2023/09/10 08:20:49;;;;;;;1999.90;999.90;;;26.50;99.90;;;;;;5107911;28;20435;-73
2023/09/10 08:23:16;;;;;;;1999.90;999.90;;;26.50;99.90;;;;;;5107283;28;20420;-75
2023/09/10 08:25:43;;;;;;;1999.90;999.90;;;26.50;99.90;;;;;;5107275;28;20432;-73
2023/09/10 08:28:10;;;;;;;1999.90;999.90;;;26.70;99.90;;;;;;5107264;28;20670;-74
2023/09/10 08:30:36;;;;;;;1999.90;999.90;;;26.70;99.90;;;;;;5106520;28;20931;-76
2023/09/10 08:33:05;;;;;;;1999.90;999.90;;;26.60;99.90;;;;;;5108196;28;20500;-74
2023/09/10 08:35:44;;;;;;;1999.90;999.90;;;26.70;99.90;;;;;;5112842;28;20428;-77
2023/09/10 08:38:10;;;;;;;1999.90;999.90;;;26.70;99.90;;;;;;5111032;28;20418;-72
2023/09/10 08:40:43;;;;;;;1999.90;999.90;;;27.00;99.90;;;;;;5107892;28;20780;-72
2023/09/10 08:43:12;;;;;;;1999.90;999.90;;;27.10;99.90;;;;;;5111896;28;20412;-69
2023/09/10 08:45:38;;;;;;;1999.90;999.90;;;27.10;99.90;;;;;;5109909;28;20507;-71
2023/09/10 08:48:08;;;;;;;1999.90;999.90;;;27.40;99.90;;;;;;5112820;28;20434;-75
2023/09/10 08:50:35;;;;;;;1999.90;999.90;;;27.00;99.90;;;;;;5112678;28;20431;-74
2023/09/10 08:53:04;;;;;;;1999.90;999.90;;;27.10;99.90;;;;;;5112930;28;20435;-73
2023/09/10 08:55:32;;;;;;;1999.90;999.90;;;27.20;99.90;;;;;;5112194;28;20423;-74
2023/09/10 08:58:00;;;;;;;1999.90;999.90;;;27.40;99.90;;;;;;5110027;28;20424;-73
2023/09/10 09:00:28;;;;;;;1999.90;999.90;;;27.40;99.90;;;;;;5100097;28;20433;-74
2023/09/10 09:02:56;;;;;;;1999.90;999.90;;;27.50;99.90;;;;;;5102279;28;20406;-74
2023/09/10 09:05:28;;;;;;;1999.90;999.90;;;27.30;99.90;;;;;;5100069;28;20430;-74
2023/09/10 09:07:57;;;;;;;1999.90;999.90;;;27.50;99.90;;;;;;5102296;28;20421;-73
2023/09/10 09:10:26;;;;;;;1999.90;999.90;;;27.60;99.90;;;;;;5094071;28;20441;-70
2023/09/10 09:12:57;;;;;;;1999.90;999.90;;;27.80;99.90;;;;;;5102910;28;20450;-74
2023/09/10 09:15:25;;;;;;;1999.90;999.90;;;27.90;99.90;;;;;;5113840;28;20412;-73
2023/09/10 09:17:54;;;;;;;1999.90;999.90;;;27.70;99.90;;;;;;5106195;28;20428;-73
2023/09/10 09:20:22;;;;;;;1999.90;999.90;;;27.70;99.90;;;;;;5108710;28;20432;-74
2023/09/10 09:22:55;;;;;;;1999.90;999.90;;;27.90;99.90;;;;;;5111849;28;20432;-74
2023/09/10 09:25:22;;;;;;;1999.90;999.90;;;28.00;99.90;;;;;;5105268;28;20436;-75
2023/09/10 09:27:49;;;;;;;1999.90;999.90;;;28.30;99.80;;;;;;5112457;28;20485;-72
2023/09/10 09:30:16;;;;;;;1999.90;999.90;;;28.20;99.90;;;;;;5110059;28;20439;-75
2023/09/10 09:32:46;;;;;;;1999.90;999.90;;;28.10;99.90;;;;;;5111488;28;20767;-75
2023/09/10 09:35:13;;;;;;;1999.90;999.90;;;28.10;99.90;;;;;;5111301;28;20816;-74
2023/09/10 09:37:41;;;;;;;1999.90;999.90;;;28.20;99.90;;;;;;5104181;28;20528;-78
2023/09/10 09:40:11;;;;;;;1999.90;999.90;;;28.50;99.90;;;;;;5110963;28;20468;-76
2023/09/10 09:42:38;;;;;;;1999.90;999.90;;;28.70;98.70;;;;;;5108879;28;20446;-72
2023/09/10 09:45:06;;;;;;;1999.90;999.90;;;28.60;99.90;;;;;;5110683;27;20428;-73
2023/09/10 09:47:33;;;;;;;1999.90;999.90;;;28.70;99.90;;;;;;5112426;28;20944;-73
2023/09/10 09:50:00;;;;;;;1999.90;999.90;;;28.80;99.20;;;;;;5111902;28;20428;-73
2023/09/10 09:52:27;;;;;;;1999.90;999.90;;;28.80;99.10;;;;;;5113544;28;20917;-75
2023/09/10 09:54:54;;;;;;;1999.90;999.90;;;28.90;98.60;;;;;;5112310;28;20428;-77
2023/09/10 09:57:22;;;;;;;1999.90;999.90;;;28.80;98.30;;;;;;5107705;28;20424;-69
2023/09/10 09:59:50;;;;;;;1999.90;999.90;;;28.70;98.70;;;;;;5112442;28;20424;-74
2023/09/10 10:02:18;;;;;;;1999.90;999.90;;;28.90;98.70;;;;;;5109445;28;20453;-74
2023/09/10 10:04:46;;;;;;;1999.90;999.90;;;29.30;99.30;;;;;;5107965;28;20422;-74
2023/09/10 10:07:14;;;;;;;1999.90;999.90;;;29.10;98.60;;;;;;5104467;28;20431;-71
2023/09/10 10:09:42;;;;;;;1999.90;999.90;;;29.40;99.20;;;;;;5111274;28;20432;-73
2023/09/10 10:12:09;;;;;;;1999.90;999.90;;;29.50;98.40;;;;;;5106718;28;20426;-73
2023/09/10 10:14:38;;;;;;;1999.90;999.90;;;29.60;97.90;;;;;;5104920;28;21201;-74
2023/09/10 10:17:06;;;;;;;1999.90;999.90;;;29.50;98.30;;;;;;5111759;28;20456;-74
2023/09/10 10:19:33;;;;;;;1999.90;999.90;;;29.60;98.00;;;;;;5113307;28;20432;-74
2023/09/10 10:22:03;;;;;;;1999.90;999.90;;;29.70;98.00;;;;;;5110866;28;20424;-76
2023/09/10 10:24:30;;;;;;;1999.90;999.90;;;29.50;98.70;;;;;;5113453;28;20476;-74
2023/09/10 10:26:57;;;;;;;1999.90;999.90;;;29.70;98.60;;;;;;5114065;28;20432;-77
2023/09/10 10:29:24;;;;;;;1999.90;999.90;;;29.50;98.60;;;;;;5110249;28;20424;-74
2023/09/10 10:32:02;;;;;;;1999.90;999.90;;;29.50;98.00;;;;;;5113027;28;20434;-77
2023/09/10 10:34:37;;;;;;;1999.90;999.90;;;29.50;99.10;;;;;;5105301;28;20793;-76
2023/09/10 10:37:11;;;;;;;1999.90;999.90;;;29.70;98.40;;;;;;5110185;28;20428;-75
2023/09/10 10:39:55;;;;;;;1999.90;999.90;;;29.60;98.00;;;;;;5111846;28;20471;-74
2023/09/10 10:42:36;;;;;;;1999.90;999.90;;;29.50;98.10;;;;;;5113412;28;20432;-76
2023/09/10 10:45:05;;;;;;;1999.90;999.90;;;29.70;97.80;;;;;;5112268;28;20463;-73
2023/09/10 10:47:38;;;;;;;1999.90;999.90;;;29.60;97.90;;;;;;5112189;28;20917;-75
2023/09/10 10:50:09;;;;;;;1999.90;999.90;;;29.50;98.80;;;;;;5115215;28;20481;-75
2023/09/10 10:52:39;;;;;;;1999.90;999.90;;;29.50;98.10;;;;;;5114973;28;20420;-73
2023/09/10 10:55:07;;;;;;;1999.90;999.90;;;29.70;98.60;;;;;;5114046;28;20872;-76
2023/09/10 10:57:34;;;;;;;1999.90;999.90;;;30.00;97.80;;;;;;5111627;28;20428;-75
2023/09/10 11:00:02;;;;;;;1999.90;999.90;;;30.30;97.20;;;;;;5108823;28;20432;-75
2023/09/10 11:02:29;;;;;;;1999.90;999.90;;;30.30;97.10;;;;;;5110748;28;20809;-75
2023/09/10 11:04:59;;;;;;;1999.90;999.90;;;30.30;96.30;;;;;;5111759;28;20513;-75
2023/09/10 11:07:29;;;;;;;1999.90;999.90;;;30.00;96.30;;;;;;5112413;28;20428;-75
2023/09/10 11:09:57;;;;;;;1999.90;999.90;;;29.80;97.00;;;;;;5111540;28;20468;-75
2023/09/10 11:12:24;;;;;;;1999.90;999.90;;;29.80;96.80;;;;;;5107449;28;20424;-76
2023/09/10 11:15:13;;;;;;;1999.90;999.90;;;29.60;97.30;;;;;;5108757;28;20469;-72
2023/09/10 11:17:40;;;;;;;1999.90;999.90;;;29.70;98.10;;;;;;5104165;28;20435;-71
2023/09/10 11:20:09;;;;;;;1999.90;999.90;;;29.90;97.60;;;;;;5104217;28;20410;-73
2023/09/10 11:23:08;;;;;;;1999.90;999.90;;;29.80;96.90;;;;;;5112786;28;20409;-72
2023/09/10 11:25:35;;;;;;;1999.90;999.90;;;29.60;97.80;;;;;;5107219;28;20425;-73
2023/09/10 11:28:03;;;;;;;1999.90;999.90;;;29.60;97.70;;;;;;5109821;28;20412;-72
2023/09/10 11:30:30;;;;;;;1999.90;999.90;;;29.70;97.40;;;;;;5113135;28;20412;-73
2023/09/10 11:33:29;;;;;;;1999.90;999.90;;;29.80;97.50;;;;;;5113264;28;20405;-75
2023/09/10 11:35:59;;;;;;;1999.90;999.90;;;29.70;97.40;;;;;;5111942;28;20411;-74
2023/09/10 11:38:29;;;;;;;1999.90;999.90;;;29.70;98.60;;;;;;5101808;28;20421;-75
2023/09/10 11:40:58;;;;;;;1999.90;999.90;;;30.10;97.30;;;;;;5093098;28;20398;-78
2023/09/10 11:43:26;;;;;;;1999.90;999.90;;;29.90;97.60;;;;;;5091837;28;20406;-76
2023/09/10 11:45:53;;;;;;;1999.90;999.90;;;29.90;97.30;;;;;;5091429;28;20418;-77
2023/09/10 11:48:20;;;;;;;1999.90;999.90;;;30.10;97.00;;;;;;5093036;28;20408;-78
2023/09/10 11:50:47;;;;;;;1999.90;999.90;;;30.20;96.30;;;;;;5108242;28;20427;-76
2023/09/10 11:53:15;;;;;;;1999.90;999.90;;;30.30;96.60;;;;;;5102642;28;20461;-74
2023/09/10 11:55:42;;;;;;;1999.90;999.90;;;30.40;96.50;;;;;;5112706;28;20404;-74
2023/09/10 11:58:09;;;;;;;1999.90;999.90;;;30.50;96.30;;;;;;5112542;28;20415;-74
2023/09/10 12:00:36;;;;;;;1999.90;999.90;;;30.50;96.40;;;;;;5112337;28;20885;-76
2023/09/10 12:03:03;;;;;;;1999.90;999.90;;;30.50;96.20;;;;;;5111414;28;20431;-74